Time;durP1;ratioP1;P1;durP2;ratioP2;P2;SDS_P1;SDS_P2;PMS_P1;PMS_P2;Temp;Humidity;BMP_temperature;BMP_pressure;BME280_temperature;BME280_humidity;BME280_pressure;Samples;Min_cycle;Max_cycle;Signal;HPM_P1;HPM_P2
2022/05/01 00:01:41;;;;;;;28.80;19.05;;;7.40;91.20;;;;;;5022926;28;25115;-71
2022/05/01 00:04:07;;;;;;;32.83;20.13;;;7.30;92.20;;;;;;5024818;28;25056;-69
2022/05/01 00:06:33;;;;;;;33.85;20.48;;;7.30;93.10;;;;;;5026591;28;25057;-70
2022/05/01 00:09:00;;;;;;;32.35;21.50;;;7.30;94.00;;;;;;5015689;28;25069;-69
2022/05/01 00:11:26;;;;;;;33.25;21.38;;;7.30;94.30;;;;;;5022057;28;25108;-69
2022/05/01 00:13:52;;;;;;;29.67;21.70;;;7.20;95.00;;;;;;5012706;28;25052;-69
2022/05/01 00:16:18;;;;;;;36.65;21.75;;;7.30;95.50;;;;;;5007159;28;25069;-69
2022/05/01 00:18:44;;;;;;;35.45;20.55;;;7.20;95.80;;;;;;5006290;28;25107;-70
2022/05/01 00:21:10;;;;;;;29.90;20.70;;;7.20;96.70;;;;;;5009350;28;25064;-71
2022/05/01 00:23:36;;;;;;;35.95;20.15;;;7.30;96.40;;;;;;5008705;28;25071;-71
2022/05/01 00:26:04;;;;;;;32.45;21.10;;;7.30;94.60;;;;;;5010534;28;25066;-70
2022/05/01 00:28:37;;;;;;;32.40;20.98;;;7.30;94.10;;;;;;5007832;28;25055;-70
2022/05/01 00:31:05;;;;;;;36.28;21.33;;;7.30;93.80;;;;;;5007946;28;25065;-70
2022/05/01 00:36:27;;;;;;;40.70;22.33;;;7.10;94.30;;;;;;5007833;28;25066;-70
2022/05/01 00:38:53;;;;;;;38.55;22.83;;;7.10;96.40;;;;;;5008251;28;25056;-69
2022/05/01 00:41:21;;;;;;;39.00;23.13;;;7.00;97.90;;;;;;5008444;28;25070;-71
2022/05/01 00:44:08;;;;;;;34.50;22.13;;;7.00;99.50;;;;;;5007415;28;25077;-71
2022/05/01 00:46:39;;;;;;;32.63;23.55;;;7.00;99.90;;;;;;5005174;28;25074;-71
2022/05/01 00:49:08;;;;;;;36.67;23.30;;;7.00;99.90;;;;;;5006185;28;25063;-70
2022/05/01 00:51:41;;;;;;;32.92;22.17;;;7.00;99.90;;;;;;5008331;28;25077;-71
2022/05/01 00:54:08;;;;;;;33.40;22.08;;;7.10;99.90;;;;;;5010493;28;25059;-70
2022/05/01 00:56:38;;;;;;;33.35;23.23;;;7.10;99.90;;;;;;5010601;28;25078;-69
2022/05/01 00:59:04;;;;;;;36.92;21.77;;;7.10;99.90;;;;;;5006563;28;25075;-70
2022/05/01 01:01:31;;;;;;;34.97;22.65;;;7.10;99.60;;;;;;5005987;28;25065;-71
2022/05/01 01:03:57;;;;;;;36.92;24.15;;;7.10;98.70;;;;;;5007199;28;25093;-71
2022/05/01 01:06:22;;;;;;;35.03;23.42;;;7.00;98.00;;;;;;5008216;28;25102;-69
2022/05/01 01:08:48;;;;;;;35.65;23.33;;;7.00;97.90;;;;;;5007405;28;25088;-71
2022/05/01 01:11:14;;;;;;;34.10;23.50;;;7.00;97.80;;;;;;5007080;28;25136;-71
2022/05/01 01:13:39;;;;;;;40.92;23.20;;;7.00;97.40;;;;;;5009431;28;25065;-70
2022/05/01 01:16:09;;;;;;;34.42;22.80;;;6.90;97.50;;;;;;5005736;28;25104;-70
2022/05/01 01:18:35;;;;;;;33.85;23.13;;;6.90;97.90;;;;;;5008104;28;25064;-71
2022/05/01 01:21:01;;;;;;;33.85;22.80;;;6.90;97.70;;;;;;5008999;28;25074;-70
2022/05/01 01:23:29;;;;;;;34.85;22.23;;;6.70;95.00;;;;;;5007751;28;25066;-70
2022/05/01 01:25:55;;;;;;;41.17;24.77;;;6.60;95.70;;;;;;5006612;28;25098;-71
2022/05/01 01:28:21;;;;;;;38.78;24.55;;;6.50;97.80;;;;;;5006819;28;25139;-72
2022/05/01 01:33:33;;;;;;;33.03;22.83;;;6.60;99.30;;;;;;5007463;28;25068;-70
2022/05/01 01:36:02;;;;;;;38.90;24.77;;;6.60;99.50;;;;;;5007984;28;25130;-69
2022/05/01 01:38:28;;;;;;;34.78;22.30;;;6.50;97.20;;;;;;5008926;28;25071;-69
2022/05/01 01:40:56;;;;;;;40.28;25.40;;;6.40;97.20;;;;;;5008333;28;25078;-71
2022/05/01 01:43:25;;;;;;;38.90;24.83;;;6.30;98.10;;;;;;5005705;28;25054;-72
2022/05/01 01:45:50;;;;;;;34.85;23.65;;;6.20;99.90;;;;;;5007926;28;25076;-70
2022/05/01 01:48:19;;;;;;;41.38;25.13;;;6.20;99.90;;;;;;5006218;28;25097;-71
2022/05/01 01:51:00;;;;;;;43.30;25.27;;;6.20;99.90;;;;;;5008378;28;25046;-69
2022/05/01 01:53:29;;;;;;;43.03;26.88;;;6.20;99.90;;;;;;5007654;28;25162;-69
2022/05/01 01:55:57;;;;;;;43.55;26.45;;;6.20;99.90;;;;;;5009802;28;25084;-70
2022/05/01 01:58:23;;;;;;;38.20;25.27;;;6.20;99.90;;;;;;5019169;28;25057;-71
2022/05/01 02:00:48;;;;;;;38.40;26.10;;;6.20;99.90;;;;;;5022494;28;25076;-71
2022/05/01 02:03:15;;;;;;;44.33;25.70;;;6.30;99.90;;;;;;5018591;28;25113;-70
2022/05/01 02:05:41;;;;;;;35.17;24.30;;;6.30;99.90;;;;;;5016748;28;25075;-71
2022/05/01 02:08:07;;;;;;;40.80;26.95;;;6.30;99.90;;;;;;5017274;28;25055;-69
2022/05/01 02:10:33;;;;;;;44.42;27.02;;;6.30;99.90;;;;;;5019946;28;25067;-71
2022/05/01 02:13:02;;;;;;;35.65;24.25;;;6.30;99.90;;;;;;5008312;28;25057;-71
2022/05/01 02:15:31;;;;;;;41.17;25.48;;;6.20;99.90;;;;;;5006653;28;25058;-70
2022/05/01 02:17:58;;;;;;;42.13;26.60;;;6.30;99.90;;;;;;5003791;28;25163;-70
2022/05/01 02:20:24;;;;;;;35.83;24.38;;;6.30;99.90;;;;;;5007246;28;25074;-71
2022/05/01 02:22:50;;;;;;;35.47;23.00;;;6.20;99.90;;;;;;5005757;28;25098;-70
2022/05/01 02:25:15;;;;;;;45.33;31.92;;;6.20;99.90;;;;;;5007353;28;25113;-70
2022/05/01 02:27:41;;;;;;;49.15;28.85;;;6.20;99.70;;;;;;5006773;28;25059;-71
2022/05/01 02:30:08;;;;;;;43.55;27.55;;;6.10;99.90;;;;;;5008019;28;25185;-71
2022/05/01 02:32:37;;;;;;;38.30;25.00;;;6.10;99.90;;;;;;5004910;28;25077;-72
2022/05/01 02:35:05;;;;;;;42.33;27.17;;;6.00;99.90;;;;;;5007237;28;25074;-70
2022/05/01 02:37:30;;;;;;;39.63;26.02;;;5.90;99.90;;;;;;5011488;28;25075;-70
2022/05/01 02:39:56;;;;;;;43.25;27.13;;;6.00;99.90;;;;;;5011659;28;25117;-71
2022/05/01 02:42:21;;;;;;;38.75;25.80;;;6.00;99.90;;;;;;5011818;28;25130;-69
2022/05/01 02:44:47;;;;;;;43.78;27.33;;;6.00;99.90;;;;;;5013317;28;25074;-69
2022/05/01 02:47:12;;;;;;;40.03;26.00;;;6.00;99.90;;;;;;5012947;28;25073;-71
2022/05/01 02:49:40;;;;;;;41.10;25.67;;;5.90;99.90;;;;;;5014598;28;25080;-71
2022/05/01 02:52:05;;;;;;;42.13;26.17;;;5.90;99.90;;;;;;5012077;28;25133;-69
2022/05/01 02:54:31;;;;;;;39.47;27.25;;;6.00;99.90;;;;;;5007132;28;25080;-71
2022/05/01 02:56:56;;;;;;;41.92;27.08;;;6.00;99.90;;;;;;5006102;28;25071;-70
2022/05/01 02:59:22;;;;;;;43.20;26.85;;;5.90;99.90;;;;;;5007501;28;25140;-69
2022/05/01 03:01:47;;;;;;;37.85;26.80;;;6.00;99.90;;;;;;5014453;28;25126;-70
2022/05/01 03:04:13;;;;;;;35.70;24.02;;;6.00;99.90;;;;;;5015346;28;25085;-69
2022/05/01 03:06:39;;;;;;;36.88;24.33;;;6.00;99.90;;;;;;5012774;28;25060;-69
2022/05/01 03:09:04;;;;;;;36.63;25.00;;;5.90;99.90;;;;;;5012535;28;25089;-70
2022/05/01 03:11:32;;;;;;;33.33;23.83;;;5.80;99.90;;;;;;5011982;28;25062;-71
2022/05/01 03:13:58;;;;;;;34.60;24.70;;;5.80;99.90;;;;;;5012134;28;25052;-70
2022/05/01 03:16:23;;;;;;;44.83;27.65;;;5.80;99.90;;;;;;5008089;28;25057;-70
2022/05/01 03:24:18;;;;;;;41.25;24.90;;;5.80;99.90;;;;;;5009433;28;25107;-69
2022/05/01 03:26:47;;;;;;;37.97;24.67;;;5.80;99.90;;;;;;5009484;28;25081;-71
2022/05/01 03:29:16;;;;;;;35.38;24.30;;;5.70;99.90;;;;;;5009039;28;25065;-70
2022/05/01 03:31:41;;;;;;;38.58;25.48;;;5.60;99.90;;;;;;5009710;28;25098;-71
2022/05/01 03:34:07;;;;;;;44.78;25.92;;;5.60;99.90;;;;;;5009403;28;25168;-69
2022/05/01 03:36:33;;;;;;;44.63;26.90;;;5.60;99.90;;;;;;5009090;28;25082;-72
2022/05/01 03:38:59;;;;;;;50.90;26.65;;;5.60;99.90;;;;;;5008057;28;25130;-70
2022/05/01 03:41:26;;;;;;;47.67;28.98;;;5.60;99.90;;;;;;5006083;28;25103;-71
2022/05/01 03:43:52;;;;;;;39.60;26.42;;;5.70;99.90;;;;;;5006188;28;25068;-70
2022/05/01 03:46:20;;;;;;;42.83;27.30;;;5.70;99.90;;;;;;5008567;28;25150;-70
2022/05/01 03:48:46;;;;;;;45.53;29.35;;;5.70;99.90;;;;;;5007401;28;25057;-70
2022/05/01 03:51:12;;;;;;;49.00;28.95;;;5.60;99.90;;;;;;5008590;28;25067;-71
2022/05/01 03:53:38;;;;;;;46.20;28.83;;;5.60;99.90;;;;;;5006242;28;25056;-71
2022/05/01 03:56:04;;;;;;;43.58;28.70;;;5.60;99.90;;;;;;5008484;28;25100;-70
2022/05/01 03:58:30;;;;;;;44.42;28.25;;;5.60;99.90;;;;;;5007564;28;25102;-71
2022/05/01 04:00:56;;;;;;;49.28;30.52;;;5.60;99.90;;;;;;5008766;28;25102;-68
2022/05/01 04:03:22;;;;;;;48.20;30.20;;;5.60;99.90;;;;;;5002660;28;25056;-71
2022/05/01 04:05:48;;;;;;;50.88;31.45;;;5.50;99.90;;;;;;5002510;28;25168;-70
2022/05/01 04:08:14;;;;;;;46.42;30.15;;;5.60;99.90;;;;;;5004052;28;25122;-70
2022/05/01 04:10:42;;;;;;;50.53;29.10;;;5.70;99.90;;;;;;5002417;28;25094;-71
2022/05/01 04:13:09;;;;;;;47.97;29.25;;;5.60;99.90;;;;;;5002723;28;25053;-71
2022/05/01 04:15:36;;;;;;;48.95;29.88;;;5.70;99.90;;;;;;5004427;28;25066;-70
2022/05/01 04:18:06;;;;;;;44.17;29.05;;;5.60;99.90;;;;;;5000996;28;25081;-71
2022/05/01 04:20:33;;;;;;;48.03;31.05;;;5.60;99.90;;;;;;5003699;28;25056;-69
2022/05/01 04:22:59;;;;;;;45.35;28.60;;;5.50;99.90;;;;;;5003406;28;25123;-70
2022/05/01 04:25:27;;;;;;;48.55;31.65;;;5.50;99.90;;;;;;5002610;28;25062;-69
2022/05/01 04:28:06;;;;;;;49.22;30.00;;;5.60;99.90;;;;;;5002803;28;25082;-71
2022/05/01 04:30:32;;;;;;;51.63;30.60;;;5.60;99.90;;;;;;5004901;28;25142;-73
2022/05/01 04:33:04;;;;;;;50.10;30.58;;;5.60;99.90;;;;;;5006406;28;25064;-70
2022/05/01 04:35:33;;;;;;;51.60;31.63;;;5.60;99.90;;;;;;5006995;28;25051;-71
2022/05/01 04:38:07;;;;;;;53.55;32.25;;;5.60;99.90;;;;;;5005591;28;25044;-72
2022/05/01 04:40:34;;;;;;;51.28;31.52;;;5.60;99.90;;;;;;5006730;28;25070;-71
2022/05/01 04:43:04;;;;;;;55.67;32.58;;;5.70;99.90;;;;;;5005161;28;25148;-70
2022/05/01 04:45:31;;;;;;;53.47;30.33;;;5.70;99.90;;;;;;5002805;28;25149;-71
2022/05/01 04:47:57;;;;;;;53.60;33.63;;;5.80;99.90;;;;;;5004773;28;25075;-71
2022/05/01 04:50:23;;;;;;;48.05;31.05;;;5.80;99.90;;;;;;5007003;28;25507;-70
2022/05/01 04:52:48;;;;;;;51.30;33.28;;;6.00;99.90;;;;;;5006862;28;25083;-70
2022/05/01 04:55:14;;;;;;;55.17;34.25;;;6.00;99.90;;;;;;5006292;28;25157;-70
2022/05/01 04:57:40;;;;;;;55.15;35.47;;;6.00;99.90;;;;;;5007234;28;25065;-71
2022/05/01 05:00:07;;;;;;;57.03;34.08;;;6.00;99.90;;;;;;5006655;28;25053;-71
2022/05/01 05:02:41;;;;;;;50.45;32.90;;;6.10;99.90;;;;;;5007801;28;25091;-71
2022/05/01 05:05:09;;;;;;;55.03;34.35;;;6.20;99.90;;;;;;5007633;28;25144;-70
2022/05/01 05:07:39;;;;;;;59.70;36.75;;;6.30;99.90;;;;;;5006112;28;25073;-71
2022/05/01 05:10:07;;;;;;;59.55;37.28;;;6.40;99.90;;;;;;5006459;28;25070;-71
2022/05/01 05:12:34;;;;;;;60.90;38.88;;;6.50;99.90;;;;;;5007238;28;25072;-70
2022/05/01 05:15:00;;;;;;;63.67;39.65;;;6.60;99.90;;;;;;5005776;28;25079;-71
2022/05/01 05:17:27;;;;;;;68.90;40.65;;;6.80;99.90;;;;;;5005683;28;25176;-72
2022/05/01 05:19:54;;;;;;;65.43;41.10;;;6.90;99.90;;;;;;5007037;28;25127;-70
2022/05/01 05:22:20;;;;;;;56.03;37.42;;;6.80;99.90;;;;;;5005207;28;25067;-71
2022/05/01 05:24:46;;;;;;;65.43;41.22;;;6.90;99.90;;;;;;5006550;28;25083;-71
2022/05/01 05:27:13;;;;;;;71.10;41.72;;;7.00;99.90;;;;;;5007549;28;25070;-70
2022/05/01 05:29:39;;;;;;;69.93;40.83;;;7.10;99.90;;;;;;5008120;28;25105;-70
2022/05/01 05:32:06;;;;;;;63.55;39.63;;;7.10;99.90;;;;;;5004237;28;25061;-69
2022/05/01 05:34:31;;;;;;;73.38;41.88;;;7.10;99.90;;;;;;5004654;28;25082;-70
2022/05/01 05:36:57;;;;;;;65.82;40.70;;;7.10;99.90;;;;;;5005989;28;25066;-69
2022/05/01 05:39:23;;;;;;;72.80;43.22;;;7.20;99.90;;;;;;5003432;28;25123;-70
2022/05/01 05:41:49;;;;;;;59.83;38.28;;;7.20;99.90;;;;;;5005559;28;25160;-69
2022/05/01 05:44:15;;;;;;;67.60;41.03;;;7.30;99.90;;;;;;5006752;28;25062;-71
2022/05/01 05:46:41;;;;;;;61.78;39.33;;;7.30;99.90;;;;;;5007297;28;25046;-72
2022/05/01 05:49:06;;;;;;;66.13;39.65;;;7.40;99.90;;;;;;5006539;28;25148;-69
2022/05/01 05:51:32;;;;;;;58.80;37.92;;;7.30;99.90;;;;;;5004244;28;25065;-71
2022/05/01 05:53:57;;;;;;;59.83;38.20;;;7.40;99.90;;;;;;5005612;28;25135;-70
2022/05/01 05:56:24;;;;;;;57.00;36.65;;;7.40;99.90;;;;;;5005419;28;25072;-70
2022/05/01 05:58:50;;;;;;;63.63;38.13;;;7.60;99.90;;;;;;5006201;28;25098;-70
2022/05/01 06:01:16;;;;;;;58.25;36.72;;;7.70;99.90;;;;;;5008612;28;25133;-70
2022/05/01 06:03:42;;;;;;;61.83;35.83;;;7.60;99.90;;;;;;5005144;28;25073;-70
2022/05/01 06:06:07;;;;;;;51.30;34.05;;;7.80;99.90;;;;;;5005715;28;25068;-69
2022/05/01 06:08:38;;;;;;;49.30;33.83;;;8.00;99.90;;;;;;5005672;28;25065;-70
2022/05/01 06:11:04;;;;;;;53.72;34.95;;;8.20;99.90;;;;;;5005584;28;25163;-70
2022/05/01 06:13:29;;;;;;;55.65;35.72;;;8.10;99.90;;;;;;5006566;28;25102;-70
2022/05/01 06:15:55;;;;;;;55.65;36.35;;;8.00;99.90;;;;;;5005104;28;25073;-70
2022/05/01 06:18:21;;;;;;;53.17;34.15;;;8.00;99.90;;;;;;5004411;28;25078;-71
2022/05/01 06:20:47;;;;;;;49.88;33.08;;;8.00;99.90;;;;;;5003391;28;25055;-70
2022/05/01 06:23:13;;;;;;;47.72;31.98;;;8.10;99.90;;;;;;5006997;28;25082;-70
2022/05/01 06:25:39;;;;;;;48.10;32.83;;;8.20;99.90;;;;;;5006766;28;25077;-72
2022/05/01 06:28:05;;;;;;;46.88;30.17;;;8.20;99.90;;;;;;5006774;28;25129;-72
2022/05/01 06:30:32;;;;;;;43.72;29.92;;;8.30;99.90;;;;;;5005774;28;25168;-70
2022/05/01 06:32:57;;;;;;;50.50;29.02;;;8.50;99.90;;;;;;5004309;28;25065;-70
2022/05/01 06:35:24;;;;;;;44.92;30.35;;;8.50;99.90;;;;;;5008608;28;25146;-71
2022/05/01 06:37:50;;;;;;;42.33;29.05;;;8.60;99.90;;;;;;5008411;28;25085;-70
2022/05/01 06:40:16;;;;;;;43.17;28.45;;;8.60;99.90;;;;;;5008564;28;25156;-71
2022/05/01 06:42:41;;;;;;;43.30;29.00;;;8.60;99.90;;;;;;5010347;28;25081;-70
2022/05/01 06:45:07;;;;;;;39.95;27.55;;;8.60;99.90;;;;;;5008629;28;25092;-69
2022/05/01 06:47:33;;;;;;;41.20;27.63;;;8.60;99.90;;;;;;5004714;28;25091;-69
2022/05/01 06:49:58;;;;;;;39.47;27.13;;;8.70;97.80;;;;;;5005255;28;25113;-71
2022/05/01 06:52:25;;;;;;;41.08;28.67;;;8.70;98.00;;;;;;5005702;28;25059;-71
2022/05/01 06:54:51;;;;;;;38.58;26.17;;;9.00;97.60;;;;;;5007974;28;25059;-69
2022/05/01 06:57:16;;;;;;;40.88;26.08;;;9.00;94.20;;;;;;5006447;28;25051;-69
2022/05/01 06:59:42;;;;;;;35.22;25.08;;;9.30;94.10;;;;;;5005924;28;25138;-69
2022/05/01 07:02:08;;;;;;;37.20;23.73;;;9.50;90.40;;;;;;5005582;28;25126;-70
2022/05/01 07:04:34;;;;;;;25.65;20.25;;;9.30;73.00;;;;;;5004124;28;25110;-70
2022/05/01 07:07:00;;;;;;;31.45;22.52;;;9.50;77.90;;;;;;5006101;28;25075;-69
2022/05/01 07:09:26;;;;;;;31.90;20.52;;;9.80;66.10;;;;;;5005650;28;25160;-70
2022/05/01 07:11:51;;;;;;;26.48;19.60;;;9.90;65.20;;;;;;5004479;28;25082;-70
2022/05/01 07:14:17;;;;;;;30.38;19.90;;;10.20;52.70;;;;;;5005465;28;25121;-70
2022/05/01 07:16:42;;;;;;;27.42;20.20;;;10.30;44.30;;;;;;5006712;28;25086;-71
2022/05/01 07:19:08;;;;;;;28.02;18.27;;;10.50;47.10;;;;;;5002459;28;25069;-70
2022/05/01 07:21:34;;;;;;;24.85;17.33;;;10.50;33.80;;;;;;5005377;28;25074;-69
2022/05/01 07:24:00;;;;;;;20.73;14.93;;;10.50;33.80;;;;;;5004964;28;25122;-72
2022/05/01 07:26:33;;;;;;;22.65;15.77;;;10.60;30.30;;;;;;5004886;28;25093;-71
2022/05/01 07:28:59;;;;;;;25.13;17.52;;;10.60;30.30;;;;;;5005596;28;25050;-71
2022/05/01 07:31:25;;;;;;;22.75;15.02;;;10.50;29.30;;;;;;5003745;28;25076;-70
2022/05/01 07:33:50;;;;;;;23.23;15.02;;;10.60;31.60;;;;;;5001791;28;25089;-71
2022/05/01 07:36:17;;;;;;;25.88;15.98;;;10.60;27.90;;;;;;5001326;28;25080;-72
2022/05/01 07:38:42;;;;;;;21.65;15.43;;;10.30;27.00;;;;;;5001312;28;25069;-72
2022/05/01 07:41:08;;;;;;;20.42;14.70;;;10.50;29.70;;;;;;5003365;28;25115;-72
2022/05/01 07:43:34;;;;;;;24.33;16.35;;;10.70;27.80;;;;;;5004149;28;25086;-71
2022/05/01 07:45:59;;;;;;;21.83;15.45;;;10.50;26.30;;;;;;5004304;28;25057;-72
2022/05/01 07:48:25;;;;;;;23.73;15.25;;;10.70;29.40;;;;;;5003128;28;25078;-70
2022/05/01 07:50:50;;;;;;;23.80;14.35;;;10.90;27.50;;;;;;5003325;28;25113;-70
2022/05/01 07:53:17;;;;;;;21.90;15.50;;;10.90;25.00;;;;;;5002870;28;25072;-71
2022/05/01 07:55:43;;;;;;;23.33;15.88;;;10.80;22.40;;;;;;5003993;28;25096;-71
2022/05/01 07:58:08;;;;;;;21.50;14.93;;;10.70;24.90;;;;;;5003557;28;25097;-72
2022/05/01 08:00:34;;;;;;;22.55;15.38;;;10.90;26.20;;;;;;5007640;28;25052;-70
2022/05/01 08:05:43;;;;;;;23.13;16.15;;;11.00;22.80;;;;;;5009220;28;25067;-70
2022/05/01 08:08:09;;;;;;;24.35;14.82;;;10.80;21.80;;;;;;5010091;28;25071;-71
2022/05/01 08:10:35;;;;;;;20.65;14.25;;;10.70;26.70;;;;;;5007373;28;25070;-71
2022/05/01 08:13:00;;;;;;;20.13;14.23;;;10.90;28.30;;;;;;5006870;28;25056;-71
2022/05/01 08:15:26;;;;;;;20.65;13.10;;;10.90;25.30;;;;;;5004649;28;25090;-69
2022/05/01 08:17:51;;;;;;;18.52;13.27;;;10.90;20.00;;;;;;5006438;28;25080;-71
2022/05/01 08:23:07;;;;;;;21.17;13.90;;;11.10;20.20;;;;;;5006663;28;25147;-71
2022/05/01 08:25:33;;;;;;;18.98;11.95;;;11.20;17.10;;;;;;5005069;28;25068;-69
2022/05/01 08:27:59;;;;;;;19.02;13.18;;;11.30;18.50;;;;;;5005972;28;25131;-70
2022/05/01 08:30:24;;;;;;;16.23;12.65;;;11.50;14.10;;;;;;5005409;28;25080;-72
2022/05/01 08:32:50;;;;;;;17.88;12.02;;;11.80;15.40;;;;;;5005585;28;25073;-73
2022/05/01 08:35:16;;;;;;;18.30;12.07;;;12.00;11.90;;;;;;5007467;28;25120;-69
2022/05/01 08:37:41;;;;;;;19.00;12.90;;;12.00;8.60;;;;;;5005150;28;25093;-70
2022/05/01 08:40:08;;;;;;;17.65;11.88;;;11.60;11.90;;;;;;5007578;28;25050;-70
2022/05/01 08:42:39;;;;;;;17.23;11.88;;;11.90;10.10;;;;;;5009020;28;25057;-70
2022/05/01 08:45:09;;;;;;;16.20;10.80;;;12.60;8.00;;;;;;5011248;28;25059;-69
2022/05/01 08:47:54;;;;;;;17.85;10.85;;;13.00;3.70;;;;;;5027786;28;25067;-70
2022/05/01 08:50:21;;;;;;;15.20;10.60;;;13.10;2.70;;;;;;5022466;28;25065;-71
2022/05/01 08:52:48;;;;;;;12.52;10.32;;;12.70;1.00;;;;;;5017644;28;25136;-71
2022/05/01 08:55:16;;;;;;;15.63;10.13;;;13.20;2.10;;;;;;5019233;28;25081;-71
2022/05/01 08:57:41;;;;;;;12.73;10.02;;;13.00;1.00;;;;;;5025213;28;25075;-69
2022/05/01 09:00:08;;;;;;;13.52;9.77;;;13.20;1.00;;;;;;5013695;28;25092;-69
2022/05/01 09:02:34;;;;;;;14.25;10.23;;;13.00;1.00;;;;;;5010111;28;25084;-70
2022/05/01 09:05:00;;;;;;;16.42;10.95;;;12.40;1.00;;;;;;5008560;28;25167;-70
2022/05/01 09:07:26;;;;;;;14.40;11.10;;;11.90;1.00;;;;;;5009243;28;25080;-69
2022/05/01 09:09:51;;;;;;;15.18;10.38;;;11.80;2.70;;;;;;5005945;28;25102;-71
2022/05/01 09:15:03;;;;;;;14.73;10.07;;;11.60;1.00;;;;;;5019670;28;25061;-70
2022/05/01 09:17:28;;;;;;;15.73;10.27;;;11.70;1.00;;;;;;5005360;28;25064;-69
2022/05/01 09:20:06;;;;;;;14.20;8.38;;;11.70;1.00;;;;;;5005792;28;25061;-69
2022/05/01 09:22:51;;;;;;;13.50;8.50;;;12.00;1.00;;;;;;5003637;28;25039;-68
2022/05/01 09:25:18;;;;;;;10.93;8.52;;;12.70;1.00;;;;;;5003968;28;25072;-70
2022/05/01 09:27:44;;;;;;;12.43;9.15;;;12.90;1.00;;;;;;5004740;28;25086;-70
2022/05/01 09:30:20;;;;;;;13.05;8.73;;;12.80;1.00;;;;;;5004584;28;25159;-70
2022/05/01 09:32:47;;;;;;;13.75;9.40;;;12.70;1.00;;;;;;5002960;28;25076;-68
2022/05/01 09:35:27;;;;;;;17.00;9.70;;;12.50;1.00;;;;;;5002184;28;25055;-69
2022/05/01 09:38:15;;;;;;;16.80;8.43;;;12.60;1.00;;;;;;5003782;28;25065;-70
2022/05/01 09:40:45;;;;;;;11.82;7.90;;;12.60;1.00;;;;;;5004535;28;25136;-70
2022/05/01 09:43:31;;;;;;;13.15;8.75;;;13.30;1.00;;;;;;5003118;28;25090;-70
2022/05/01 09:46:32;;;;;;;14.50;8.88;;;12.90;1.00;;;;;;5002670;28;25067;-70
2022/05/01 09:49:02;;;;;;;12.82;9.20;;;13.10;1.00;;;;;;5004601;28;25103;-70
2022/05/01 09:51:29;;;;;;;12.68;8.90;;;13.10;1.00;;;;;;5007759;28;25144;-69
2022/05/01 09:53:56;;;;;;;14.85;9.20;;;13.30;1.00;;;;;;5003962;28;25058;-69
2022/05/01 09:56:21;;;;;;;13.82;8.60;;;12.90;1.00;;;;;;5004505;28;25065;-70
2022/05/01 09:59:00;;;;;;;11.23;8.10;;;12.70;1.00;;;;;;5003570;28;25078;-70
2022/05/01 10:01:26;;;;;;;13.23;7.95;;;13.30;1.00;;;;;;5003757;28;25158;-71
2022/05/01 10:03:52;;;;;;;9.57;7.20;;;13.80;1.00;;;;;;5003802;28;25141;-69
2022/05/01 10:06:19;;;;;;;9.85;7.43;;;14.00;1.00;;;;;;5004118;28;25140;-69
2022/05/01 10:08:46;;;;;;;10.90;6.70;;;14.40;1.00;;;;;;5006038;28;25158;-69
2022/05/01 10:11:14;;;;;;;10.77;7.43;;;14.60;1.00;;;;;;5006225;28;25083;-70
2022/05/01 10:13:42;;;;;;;9.00;6.90;;;14.70;1.00;;;;;;5003909;28;25054;-72
2022/05/01 10:16:10;;;;;;;8.82;6.38;;;14.70;1.00;;;;;;5005905;28;25060;-70
2022/05/01 10:18:36;;;;;;;11.02;7.32;;;15.40;1.00;;;;;;5004482;28;25080;-71
2022/05/01 10:21:06;;;;;;;12.50;6.68;;;15.30;1.00;;;;;;5003794;28;25122;-71
2022/05/01 10:23:32;;;;;;;10.75;6.80;;;14.70;1.00;;;;;;5003380;28;25065;-72
2022/05/01 10:26:18;;;;;;;10.43;6.40;;;15.50;1.00;;;;;;5003185;28;25161;-71
2022/05/01 10:29:21;;;;;;;9.73;7.00;;;15.50;1.00;;;;;;5005152;28;25099;-69
2022/05/01 10:32:24;;;;;;;;;;;14.40;1.00;;;;;;5017193;28;25058;-72
2022/05/01 10:35:12;;;;;;;9.98;6.25;;;14.20;1.00;;;;;;5023282;28;25108;-70
2022/05/01 10:38:05;;;;;;;13.90;6.30;;;15.10;1.00;;;;;;5007346;28;25062;-71
2022/05/01 10:40:41;;;;;;;6.85;5.00;;;15.00;1.00;;;;;;5006015;28;25134;-72
2022/05/01 10:43:26;;;;;;;7.15;4.90;;;15.00;1.00;;;;;;5006280;28;25053;-70
2022/05/01 10:45:58;;;;;;;7.25;4.32;;;14.70;1.00;;;;;;5006340;28;25054;-70
2022/05/01 10:48:35;;;;;;;9.55;4.97;;;14.50;1.00;;;;;;5002542;28;25056;-71
2022/05/01 10:51:25;;;;;;;9.73;5.50;;;14.40;1.00;;;;;;5006989;28;25056;-70
2022/05/01 10:54:09;;;;;;;8.38;6.20;;;14.90;1.00;;;;;;5005007;28;25054;-70
2022/05/01 10:56:36;;;;;;;6.82;6.10;;;14.90;1.00;;;;;;5004882;28;25057;-71
2022/05/01 10:59:29;;;;;;;6.70;4.90;;;15.10;1.00;;;;;;5007100;28;25054;-71
2022/05/01 11:01:56;;;;;;;6.25;4.95;;;15.10;1.00;;;;;;5007037;28;25097;-72
2022/05/01 11:04:22;;;;;;;6.22;4.10;;;15.20;1.00;;;;;;5011809;28;25127;-71
2022/05/01 11:06:51;;;;;;;7.28;5.00;;;15.70;1.00;;;;;;5008113;28;25100;-71
2022/05/01 11:09:25;;;;;;;5.38;4.88;;;16.30;1.00;;;;;;5006492;28;25062;-71
2022/05/01 11:11:58;;;;;;;8.48;5.00;;;15.80;1.00;;;;;;5005599;28;25062;-71
2022/05/01 11:14:40;;;;;;;8.80;5.95;;;15.30;1.00;;;;;;5007205;28;25063;-72
2022/05/01 11:17:07;;;;;;;7.00;5.47;;;15.00;1.00;;;;;;5005519;28;25062;-72
2022/05/01 11:19:50;;;;;;;9.85;6.05;;;14.50;1.00;;;;;;5006908;28;25118;-70
2022/05/01 11:22:22;;;;;;;6.50;5.70;;;14.60;1.00;;;;;;5005747;28;25075;-71
2022/05/01 11:24:48;;;;;;;6.63;5.13;;;14.50;1.00;;;;;;5004400;28;25050;-71
2022/05/01 11:27:16;;;;;;;8.65;6.00;;;14.40;1.00;;;;;;5005960;28;25080;-71
2022/05/01 11:30:06;;;;;;;6.03;5.00;;;14.40;1.00;;;;;;5005711;28;25151;-71
2022/05/01 11:32:50;;;;;;;6.93;5.05;;;15.30;1.00;;;;;;5005428;28;25103;-71
2022/05/01 11:35:16;;;;;;;8.10;5.55;;;16.60;1.00;;;;;;5011719;28;25104;-71
2022/05/01 11:38:02;;;;;;;8.55;6.22;;;17.20;1.00;;;;;;5016199;28;25072;-71
2022/05/01 11:40:28;;;;;;;8.45;5.85;;;16.10;1.00;;;;;;5013921;28;25154;-71
2022/05/01 11:43:15;;;;;;;12.10;5.93;;;15.70;1.00;;;;;;5015292;28;25049;-70
2022/05/01 11:45:41;;;;;;;8.50;5.70;;;15.30;1.00;;;;;;5015154;28;25104;-72
2022/05/01 11:48:18;;;;;;;7.82;5.65;;;15.00;1.00;;;;;;5012895;28;25058;-71
2022/05/01 11:50:46;;;;;;;9.35;5.85;;;15.20;1.00;;;;;;5007224;28;25063;-71
2022/05/01 11:53:25;;;;;;;7.22;5.43;;;15.60;1.00;;;;;;5007291;28;25171;-71
2022/05/01 12:04:33;;;;;;;10.40;5.47;;;16.50;1.00;;;;;;5008792;28;25050;-70
2022/05/01 12:07:04;;;;;;;6.88;5.72;;;16.20;1.00;;;;;;5010242;28;25077;-71
2022/05/01 12:09:31;;;;;;;8.50;5.65;;;15.80;1.00;;;;;;5010582;28;25149;-69
2022/05/01 12:11:56;;;;;;;9.25;5.85;;;15.90;1.00;;;;;;5016969;28;25048;-69
2022/05/01 12:14:22;;;;;;;7.55;6.00;;;15.20;1.00;;;;;;5009871;28;25088;-69
2022/05/01 12:16:48;;;;;;;7.18;5.18;;;14.50;1.00;;;;;;5028418;28;25049;-68
2022/05/01 12:19:14;;;;;;;6.53;5.55;;;14.40;1.00;;;;;;5022027;28;25135;-69
2022/05/01 12:21:40;;;;;;;10.98;6.03;;;14.70;1.00;;;;;;5015616;28;25049;-70
2022/05/01 12:24:12;;;;;;;10.40;5.63;;;15.00;1.00;;;;;;5021132;28;25065;-70
2022/05/01 12:26:46;;;;;;;6.22;5.53;;;15.50;1.00;;;;;;5019402;28;25060;-70
2022/05/01 12:29:12;;;;;;;8.90;6.10;;;16.30;1.00;;;;;;5021093;28;25078;-71
2022/05/01 12:32:14;;;;;;;6.65;5.75;;;16.20;1.00;;;;;;5026279;28;25062;-69
2022/05/01 12:34:56;;;;;;;8.13;5.65;;;15.40;1.00;;;;;;5028213;28;25096;-69
2022/05/01 12:37:29;;;;;;;8.25;6.13;;;15.30;1.00;;;;;;5026654;28;25093;-68
2022/05/01 12:40:12;;;;;;;8.30;5.85;;;15.60;1.00;;;;;;5027958;28;25071;-70
2022/05/01 12:45:48;;;;;;;10.23;6.35;;;14.80;1.00;;;;;;5029183;28;25053;-70
2022/05/01 12:48:14;;;;;;;10.20;5.82;;;14.90;1.00;;;;;;5024050;28;25104;-71
2022/05/01 12:50:41;;;;;;;6.70;5.25;;;15.10;1.00;;;;;;5016417;28;25063;-69
2022/05/01 12:53:30;;;;;;;8.75;6.38;;;15.50;1.00;;;;;;5016955;28;25060;-72
2022/05/01 12:56:14;;;;;;;11.32;5.80;;;16.00;1.00;;;;;;5015291;28;25088;-69
2022/05/01 12:58:40;;;;;;;8.55;5.50;;;16.20;1.00;;;;;;5014212;28;25128;-72
2022/05/01 13:01:06;;;;;;;6.18;4.82;;;15.50;1.00;;;;;;5018318;28;25093;-69
2022/05/01 13:03:37;;;;;;;7.45;5.35;;;15.10;1.00;;;;;;5016280;28;25072;-68
2022/05/01 13:06:09;;;;;;;8.13;5.90;;;14.80;1.00;;;;;;5015557;28;25169;-68
2022/05/01 13:08:36;;;;;;;8.10;5.70;;;14.70;1.00;;;;;;5017231;28;25151;-70
2022/05/01 13:11:12;;;;;;;8.40;5.88;;;15.00;1.00;;;;;;5017189;28;25055;-70
2022/05/01 13:13:58;;;;;;;6.18;5.57;;;15.60;1.00;;;;;;5018721;28;25068;-69
2022/05/01 13:16:32;;;;;;;11.82;6.10;;;15.50;1.00;;;;;;5018004;28;25056;-68
2022/05/01 13:19:06;;;;;;;6.20;5.60;;;14.70;1.00;;;;;;5018984;28;25066;-69
2022/05/01 13:21:33;;;;;;;6.93;5.55;;;14.90;1.00;;;;;;5020736;28;25463;-70